Time;durP1;ratioP1;P1;durP2;ratioP2;P2;SDS_P1;SDS_P2;PMS_P1;PMS_P2;Temp;Humidity;BMP_temperature;BMP_pressure;BME280_temperature;BME280_humidity;BME280_pressure;Samples;Min_cycle;Max_cycle;Signal;HPM_P1;HPM_P2
2023/04/24 00:02:00;;;;;;;3.65;2.63;;;;;;;10.10;89.04;99864.63;5056356;28;20140;-71
2023/04/24 00:04:28;;;;;;;2.97;2.50;;;;;;;10.09;89.06;99854.16;5052578;28;20038;-72
2023/04/24 00:06:56;;;;;;;4.05;2.63;;;;;;;10.10;89.15;99859.34;5058459;28;20556;-71
2023/04/24 00:09:24;;;;;;;2.65;2.40;;;;;;;10.11;89.10;99868.13;5055201;28;20484;-71
2023/04/24 00:11:52;;;;;;;2.58;2.22;;;;;;;10.12;89.27;99856.69;5047031;28;20041;-71
2023/04/24 00:14:19;;;;;;;5.35;2.08;;;;;;;10.13;89.36;99852.25;5061453;28;20034;-71
2023/04/24 00:16:46;;;;;;;4.70;2.72;;;;;;;10.10;89.37;99854.09;5061261;28;20091;-71
2023/04/24 00:19:13;;;;;;;3.78;3.38;;;;;;;10.12;89.43;99861.06;5062935;28;20110;-71
2023/04/24 00:21:41;;;;;;;5.90;3.58;;;;;;;10.12;89.73;99867.22;5059070;28;20041;-71
2023/04/24 00:24:09;;;;;;;7.75;4.47;;;;;;;10.12;89.82;99869.84;5048412;28;20030;-71
2023/04/24 00:26:35;;;;;;;6.22;4.38;;;;;;;10.12;89.77;99866.34;5062771;28;20092;-71
2023/04/24 00:29:03;;;;;;;6.22;4.80;;;;;;;10.13;90.03;99874.16;5060222;28;20041;-71
2023/04/24 00:31:30;;;;;;;7.65;4.95;;;;;;;10.13;90.10;99860.16;5063616;28;20045;-71
2023/04/24 00:33:57;;;;;;;7.10;5.70;;;;;;;10.13;90.24;99862.78;5059816;28;21676;-71
2023/04/24 00:36:25;;;;;;;8.25;6.22;;;;;;;10.08;90.20;99877.00;5043821;28;20042;-71
2023/04/24 00:38:52;;;;;;;7.93;5.72;;;;;;;10.08;90.56;99877.00;5043664;28;20033;-71
2023/04/24 00:41:21;;;;;;;7.80;6.50;;;;;;;10.08;90.77;99877.00;5047778;28;20034;-71
2023/04/24 00:43:48;;;;;;;10.13;6.63;;;;;;;10.09;90.66;99878.72;5047740;28;20093;-71
2023/04/24 00:46:16;;;;;;;10.38;7.18;;;;;;;10.10;90.37;99869.91;5048638;28;20049;-71
2023/04/24 00:48:43;;;;;;;10.48;6.95;;;;;;;10.10;90.39;99867.25;5055247;28;20045;-71
2023/04/24 00:51:11;;;;;;;10.68;6.35;;;;;;;10.10;90.19;99874.31;5058555;28;20049;-71
2023/04/24 00:53:38;;;;;;;9.02;6.93;;;;;;;10.10;90.19;99874.31;5056789;28;20859;-72
2023/04/24 00:56:05;;;;;;;8.65;7.18;;;;;;;10.09;90.15;99869.97;5047119;28;21468;-72
2023/04/24 00:58:32;;;;;;;10.63;8.23;;;;;;;10.10;90.33;99879.59;5076933;28;20042;-72
2023/04/24 01:01:00;;;;;;;10.48;8.10;;;;;;;10.12;90.26;99871.59;5047467;28;20521;-71
2023/04/24 01:03:31;;;;;;;13.18;8.30;;;;;;;10.13;90.37;99870.69;5066312;28;20044;-71
2023/04/24 01:06:00;;;;;;;11.30;8.48;;;;;;;10.11;90.34;99873.41;5044670;28;20042;-71
2023/04/24 01:08:28;;;;;;;11.65;8.52;;;;;;;10.09;90.24;99869.97;5042857;28;21373;-71
2023/04/24 01:10:57;;;;;;;14.82;9.50;;;;;;;10.08;90.12;99873.53;5039566;28;20107;-71
2023/04/24 01:13:25;;;;;;;17.30;8.85;;;;;;;10.03;90.28;99868.47;5046802;28;20501;-71
2023/04/24 01:15:52;;;;;;;15.35;9.80;;;;;;;10.01;90.61;99869.47;5060055;28;20069;-71
2023/04/24 01:18:21;;;;;;;14.80;9.80;;;;;;;9.98;90.65;99862.53;5072621;28;20045;-71
2023/04/24 01:20:53;;;;;;;14.75;9.63;;;;;;;9.97;90.85;99862.59;5043522;28;20124;-72
2023/04/24 01:23:20;;;;;;;15.27;10.02;;;;;;;9.94;91.20;99861.81;5065221;28;20040;-71
2023/04/24 01:25:49;;;;;;;12.07;9.32;;;;;;;9.90;91.09;99860.25;5052776;28;20052;-71
2023/04/24 01:28:19;;;;;;;13.65;10.10;;;;;;;9.85;91.40;99864.84;5054176;28;20044;-71
2023/04/24 01:30:46;;;;;;;15.32;10.52;;;;;;;9.81;91.67;99860.66;5053868;28;20041;-71
2023/04/24 01:33:14;;;;;;;14.93;10.80;;;;;;;9.81;91.36;99863.28;5053667;28;20045;-70
2023/04/24 01:35:42;;;;;;;18.00;10.82;;;;;;;9.76;91.60;99866.09;5058074;28;20045;-70
2023/04/24 01:38:09;;;;;;;16.98;10.70;;;;;;;9.75;92.00;99869.66;5062982;28;20119;-71
2023/04/24 01:40:36;;;;;;;16.13;10.93;;;;;;;9.73;92.14;99865.34;5064420;28;20029;-70
2023/04/24 01:43:03;;;;;;;15.10;11.00;;;;;;;9.73;92.23;99870.63;5053632;28;20595;-70
2023/04/24 01:45:31;;;;;;;15.40;11.60;;;;;;;9.70;92.18;99870.78;5057192;28;20038;-70
2023/04/24 01:47:58;;;;;;;16.70;11.23;;;;;;;9.68;92.03;99870.81;5060133;28;20055;-70
2023/04/24 01:50:25;;;;;;;17.45;11.38;;;;;;;9.70;92.35;99874.25;5054449;28;20395;-70
2023/04/24 01:52:52;;;;;;;17.52;11.38;;;;;;;9.69;91.93;99864.63;5044878;28;20099;-70
2023/04/24 01:55:19;;;;;;;15.77;11.70;;;;;;;9.67;91.94;99871.72;5055051;28;20141;-71
2023/04/24 01:57:47;;;;;;;16.08;11.15;;;;;;;9.63;92.24;99857.84;5046105;28;20096;-71
2023/04/24 02:00:14;;;;;;;20.63;11.73;;;;;;;9.62;92.33;99864.03;5054740;28;20049;-72
2023/04/24 02:02:42;;;;;;;17.40;12.15;;;;;;;9.61;92.56;99861.47;5043517;28;20043;-71
2023/04/24 02:05:13;;;;;;;20.52;12.13;;;;;;;9.56;92.47;99859.03;5060648;28;20501;-71
2023/04/24 02:07:40;;;;;;;21.20;11.90;;;;;;;9.53;93.08;99869.69;5045206;28;20084;-70
2023/04/24 02:10:09;;;;;;;17.85;12.30;;;;;;;9.53;92.95;99868.84;5047472;28;20083;-70
2023/04/24 02:12:41;;;;;;;17.08;12.73;;;;;;;9.48;93.15;99863.75;5048480;28;20033;-72
2023/04/24 02:15:09;;;;;;;21.88;13.65;;;;;;;9.47;93.25;99862.06;5044745;28;20038;-72
2023/04/24 02:17:37;;;;;;;19.77;12.95;;;;;;;9.47;93.31;99862.06;5041820;28;20049;-72
2023/04/24 02:20:06;;;;;;;20.48;14.40;;;;;;;9.44;93.46;99863.03;5053602;28;20560;-72
2023/04/24 02:22:33;;;;;;;18.08;13.52;;;;;;;9.43;93.76;99863.97;5060564;28;20054;-71
2023/04/24 02:25:02;;;;;;;18.75;13.65;;;;;;;9.44;93.71;99864.78;5076547;28;20120;-73
2023/04/24 02:27:29;;;;;;;25.40;15.18;;;;;;;9.42;94.02;99867.50;5031891;28;20049;-73
2023/04/24 02:29:56;;;;;;;18.58;13.82;;;;;;;9.43;94.28;99869.22;5047963;28;20045;-72
2023/04/24 02:32:25;;;;;;;20.30;14.45;;;;;;;9.43;93.98;99868.34;5045055;28;20140;-71
2023/04/24 02:34:52;;;;;;;25.90;14.98;;;;;;;9.42;93.77;99869.25;5056278;28;20037;-72
2023/04/24 02:37:20;;;;;;;23.67;14.60;;;;;;;9.43;93.97;99866.59;5044261;28;20042;-72
2023/04/24 02:39:47;;;;;;;21.23;14.50;;;;;;;9.43;93.87;99868.34;5043846;28;20537;-71
2023/04/24 02:42:15;;;;;;;23.65;14.90;;;;;;;9.42;93.95;99874.53;5047010;28;20041;-71
2023/04/24 02:44:42;;;;;;;20.08;14.55;;;;;;;9.40;93.98;99873.75;5047187;28;20111;-72
2023/04/24 02:47:09;;;;;;;20.48;14.55;;;;;;;9.38;93.86;99876.44;5061390;28;20046;-71
2023/04/24 02:49:36;;;;;;;24.40;14.98;;;;;;;9.37;94.02;99874.72;5053743;28;20075;-71
2023/04/24 02:52:04;;;;;;;22.63;15.43;;;;;;;9.35;94.07;99871.31;5052424;28;20042;-71
2023/04/24 02:54:31;;;;;;;24.02;16.15;;;;;;;9.36;93.96;99872.16;5051599;28;20041;-71
2023/04/24 02:56:58;;;;;;;21.92;15.57;;;;;;;9.35;94.05;99878.34;5051302;28;20034;-71
2023/04/24 02:59:27;;;;;;;23.70;15.95;;;;;;;9.32;94.44;99868.78;5049804;28;20049;-70
2023/04/24 03:01:54;;;;;;;22.70;15.70;;;;;;;9.34;93.97;99877.50;5051713;28;20350;-71
2023/04/24 03:04:22;;;;;;;23.85;16.38;;;;;;;9.30;93.84;99874.13;5061434;28;20532;-71
2023/04/24 03:06:52;;;;;;;21.83;15.32;;;;;;;9.29;94.05;99869.78;5063161;28;20485;-71
2023/04/24 03:09:23;;;;;;;21.35;15.57;;;;;;;9.26;94.34;99867.28;5072207;28;20582;-71
2023/04/24 03:11:51;;;;;;;22.63;15.82;;;;;;;9.26;94.02;99871.69;5061030;28;20050;-71
2023/04/24 03:14:18;;;;;;;25.58;15.75;;;;;;;9.25;94.27;99876.06;5044604;28;20045;-71
2023/04/24 03:16:45;;;;;;;24.70;15.60;;;;;;;9.25;94.19;99875.22;5048990;28;20623;-71
2023/04/24 03:19:12;;;;;;;22.55;15.95;;;;;;;9.24;94.10;99879.63;5048256;28;20044;-71
2023/04/24 03:21:53;;;;;;;24.40;15.93;;;;;;;9.23;94.40;99875.28;5049879;28;20045;-71
2023/04/24 03:24:20;;;;;;;20.58;14.95;;;;;;;9.21;94.53;99874.47;5045617;28;20044;-71
2023/04/24 03:26:48;;;;;;;21.58;15.52;;;;;;;9.21;94.60;99882.34;5047037;28;20124;-71
2023/04/24 03:29:27;;;;;;;21.58;15.10;;;;;;;9.18;94.48;99879.88;5056298;28;20053;-71
2023/04/24 03:31:57;;;;;;;22.48;15.55;;;;;;;9.17;94.40;99880.78;5047275;28;20033;-71
2023/04/24 03:34:24;;;;;;;26.33;15.82;;;;;;;9.16;94.20;99886.97;5046684;28;20037;-71
2023/04/24 03:36:52;;;;;;;23.88;15.40;;;;;;;9.17;94.50;99883.41;5046246;28;20654;-71
2023/04/24 03:39:20;;;;;;;22.40;15.90;;;;;;;9.15;94.51;99880.88;5064590;28;20050;-71
2023/04/24 03:41:52;;;;;;;22.15;14.98;;;;;;;9.16;94.49;99882.53;5057499;28;20522;-71
2023/04/24 03:44:25;;;;;;;20.10;14.90;;;;;;;9.17;94.56;99881.63;5049722;28;20542;-71
2023/04/24 03:46:52;;;;;;;22.20;15.45;;;;;;;9.17;94.68;99884.25;5049508;28;20050;-71
2023/04/24 03:49:22;;;;;;;20.90;15.15;;;;;;;9.16;94.62;99874.66;5050407;28;20104;-71
2023/04/24 03:51:50;;;;;;;23.92;14.95;;;;;;;9.19;94.66;99883.34;5044857;28;20088;-71
2023/04/24 03:54:21;;;;;;;23.02;14.80;;;;;;;9.19;94.53;99883.34;5059241;28;20220;-72
2023/04/24 03:56:50;;;;;;;20.73;14.57;;;;;;;9.18;94.48;99885.13;5025863;28;20501;-71
2023/04/24 03:59:18;;;;;;;23.17;15.23;;;;;;;9.18;94.34;99879.88;5057849;28;20040;-72
2023/04/24 04:01:51;;;;;;;22.23;15.45;;;;;;;9.19;94.33;99888.59;5061370;28;20116;-72
2023/04/24 04:04:19;;;;;;;21.65;14.80;;;;;;;9.19;94.17;99881.59;5062471;28;20453;-72
2023/04/24 04:06:46;;;;;;;18.85;14.27;;;;;;;9.21;94.22;99882.34;5059524;28;20465;-71
2023/04/24 04:09:14;;;;;;;21.42;14.35;;;;;;;9.17;93.94;99881.63;5064221;28;20045;-71
2023/04/24 04:11:41;;;;;;;18.63;13.50;;;;;;;9.19;94.07;99881.59;5065444;28;20033;-72
2023/04/24 04:14:08;;;;;;;23.80;13.32;;;;;;;9.21;93.79;99885.00;5059595;28;20056;-71
2023/04/24 04:16:39;;;;;;;20.48;13.77;;;;;;;9.20;93.45;99892.94;5078456;28;20049;-71
2023/04/24 04:19:07;;;;;;;19.92;12.77;;;;;;;9.16;93.64;99886.97;5061305;28;20610;-71
2023/04/24 04:21:35;;;;;;;18.67;13.13;;;;;;;9.17;93.44;99888.69;5081818;28;20037;-71
2023/04/24 04:24:11;;;;;;;22.55;13.73;;;;;;;9.17;93.51;99893.94;5050466;28;20053;-71
2023/04/24 04:26:46;;;;;;;17.15;12.75;;;;;;;9.16;93.28;99890.44;5045299;28;20149;-71
2023/04/24 04:29:22;;;;;;;20.33;12.88;;;;;;;9.17;93.70;99888.69;5061626;28;20064;-71
2023/04/24 04:31:50;;;;;;;19.30;12.65;;;;;;;9.16;93.36;99884.34;5090857;28;20859;-71
2023/04/24 04:34:18;;;;;;;18.88;12.45;;;;;;;9.14;93.55;99889.66;5063279;28;20091;-71
2023/04/24 04:36:46;;;;;;;18.00;12.30;;;;;;;9.15;93.50;99890.50;5057082;28;20136;-71
2023/04/24 04:39:25;;;;;;;18.10;11.88;;;;;;;9.13;93.73;99887.06;5079755;28;20034;-71
2023/04/24 04:42:06;;;;;;;19.10;12.50;;;;;;;9.14;93.40;99887.03;5064271;28;20042;-72
2023/04/24 04:44:39;;;;;;;19.45;12.85;;;;;;;9.13;93.54;99887.94;5083372;28;20052;-70
2023/04/24 04:47:10;;;;;;;16.58;12.40;;;;;;;9.13;93.59;99889.69;5063387;28;20553;-72
2023/04/24 04:49:38;;;;;;;18.95;11.65;;;;;;;9.12;93.39;99888.88;5064048;28;20520;-71
2023/04/24 04:52:10;;;;;;;17.65;12.10;;;;;;;9.12;93.52;99894.13;5045845;28;20037;-71
2023/04/24 04:54:38;;;;;;;15.88;11.82;;;;;;;9.16;93.93;99884.34;5061973;28;20136;-71
2023/04/24 04:57:05;;;;;;;15.70;11.02;;;;;;;9.23;94.17;99891.06;5078428;28;20043;-71
2023/04/24 04:59:35;;;;;;;17.02;10.90;;;;;;;9.33;94.60;99889.75;5065607;28;20575;-71
2023/04/24 05:02:06;;;;;;;13.25;10.25;;;;;;;9.44;94.15;99889.34;5058779;28;20549;-71
2023/04/24 05:04:33;;;;;;;13.00;10.13;;;;;;;9.51;93.79;99887.31;5054763;28;20047;-71
2023/04/24 05:07:01;;;;;;;15.25;9.80;;;;;;;9.61;92.97;99887.78;5060727;28;20072;-71
2023/04/24 05:09:31;;;;;;;14.65;10.18;;;;;;;9.66;92.23;99890.22;5064875;28;20045;-71
2023/04/24 05:12:03;;;;;;;13.18;9.30;;;;;;;9.70;91.86;99886.56;5069480;28;20040;-71
2023/04/24 05:14:35;;;;;;;14.10;9.25;;;;;;;9.74;91.77;99889.00;5083486;28;20090;-71
2023/04/24 05:17:02;;;;;;;13.27;9.23;;;;;;;9.75;91.64;99895.97;5064597;28;20038;-71
2023/04/24 05:19:33;;;;;;;13.38;8.85;;;;;;;9.77;91.55;99899.38;5058767;28;20116;-72
2023/04/24 05:22:02;;;;;;;13.07;9.10;;;;;;;9.75;91.08;99898.59;5076357;28;20033;-72
2023/04/24 05:24:30;;;;;;;14.30;9.35;;;;;;;9.67;90.96;99891.94;5076715;28;20045;-72
2023/04/24 05:27:10;;;;;;;12.13;8.95;;;;;;;9.57;91.15;99897.59;5080753;28;20138;-71
2023/04/24 05:29:40;;;;;;;12.23;8.73;;;;;;;9.50;91.18;99895.25;5081290;28;20047;-71
2023/04/24 05:32:08;;;;;;;12.52;8.55;;;;;;;9.42;91.49;99904.34;5078067;28;20052;-72
2023/04/24 05:34:36;;;;;;;12.43;8.73;;;;;;;9.35;91.71;99909.91;5047358;28;20076;-72
2023/04/24 05:37:08;;;;;;;12.02;8.55;;;;;;;9.29;92.17;99909.25;5063169;28;20108;-72
2023/04/24 05:39:36;;;;;;;12.95;8.43;;;;;;;9.25;92.21;99906.78;5047985;28;20824;-72
2023/04/24 05:42:04;;;;;;;12.18;8.52;;;;;;;9.21;92.65;99913.91;5062305;28;20110;-72
2023/04/24 05:44:31;;;;;;;12.00;8.38;;;;;;;9.14;92.73;99910.69;5034438;28;20508;-72
2023/04/24 05:46:59;;;;;;;9.80;7.93;;;;;;;9.14;92.90;99920.34;5065917;28;20728;-72
2023/04/24 05:49:26;;;;;;;10.60;8.18;;;;;;;9.10;93.11;99916.97;5072675;28;20056;-72
2023/04/24 05:51:57;;;;;;;11.98;8.50;;;;;;;9.08;93.05;99913.56;5061993;28;20923;-71
2023/04/24 05:54:24;;;;;;;11.85;8.85;;;;;;;9.07;93.55;99913.63;5041940;28;20128;-71
2023/04/24 05:56:54;;;;;;;10.75;8.20;;;;;;;9.10;93.52;99918.78;5059057;28;20127;-71
2023/04/24 05:59:31;;;;;;;10.07;7.93;;;;;;;9.13;93.45;99924.75;5079516;28;20048;-72
2023/04/24 06:01:58;;;;;;;11.38;7.95;;;;;;;9.20;93.67;99935.91;5065025;28;20819;-72
2023/04/24 06:04:25;;;;;;;10.90;7.95;;;;;;;9.23;93.66;99927.88;5067566;28;20606;-71
2023/04/24 06:06:55;;;;;;;10.35;7.88;;;;;;;9.26;93.85;99940.06;5064117;28;20036;-71
2023/04/24 06:09:23;;;;;;;9.45;7.75;;;;;;;9.29;93.76;99927.66;5065583;28;20041;-72
2023/04/24 06:11:53;;;;;;;10.85;6.97;;;;;;;9.30;93.62;99939.88;5063877;28;20107;-71
2023/04/24 06:14:25;;;;;;;8.65;6.57;;;;;;;9.30;93.54;99941.66;5083615;28;20137;-71
2023/04/24 06:17:14;;;;;;;8.13;6.47;;;;;;;9.29;93.37;99942.56;5080967;28;20048;-71
2023/04/24 06:19:41;;;;;;;6.93;5.75;;;;;;;9.28;93.59;99944.34;5046122;28;20110;-72
2023/04/24 06:22:08;;;;;;;6.38;4.80;;;;;;;9.26;93.23;99937.44;5060106;28;20041;-71
2023/04/24 06:24:37;;;;;;;7.53;5.72;;;;;;;9.26;93.12;99945.31;5066570;28;20047;-71
2023/04/24 06:27:04;;;;;;;11.93;5.80;;;;;;;9.25;92.89;99949.72;5065876;28;20043;-71
2023/04/24 06:29:32;;;;;;;8.48;5.45;;;;;;;9.24;93.13;99953.25;5051155;28;20037;-71
2023/04/24 06:32:00;;;;;;;6.22;5.10;;;;;;;9.26;93.03;99959.31;5061086;28;20085;-71
2023/04/24 06:34:27;;;;;;;6.47;5.55;;;;;;;9.26;92.79;99954.06;5059191;28;20048;-70
2023/04/24 06:36:55;;;;;;;7.85;5.35;;;;;;;9.25;93.35;99957.59;5059056;28;20501;-69
2023/04/24 06:39:22;;;;;;;5.78;5.07;;;;;;;9.27;93.32;99958.41;5055449;28;20579;-73
2023/04/24 06:41:49;;;;;;;6.25;5.32;;;;;;;9.31;93.18;99962.59;5081105;28;20429;-70
2023/04/24 06:44:19;;;;;;;5.20;4.40;;;;;;;9.32;93.07;99958.22;5075351;28;20041;-69
2023/04/24 06:46:49;;;;;;;6.07;4.40;;;;;;;9.32;92.59;99963.47;5059874;28;20777;-69
2023/04/24 06:49:16;;;;;;;5.68;4.25;;;;;;;9.27;92.50;99982.06;5060761;28;20083;-69
2023/04/24 06:51:43;;;;;;;6.32;4.18;;;;;;;9.23;92.25;99971.75;5068430;28;20504;-70
2023/04/24 06:54:10;;;;;;;5.18;3.90;;;;;;;9.23;92.35;99977.00;5069508;28;20045;-70
2023/04/24 06:56:38;;;;;;;5.25;3.70;;;;;;;9.22;92.36;99985.81;5070084;28;20497;-70
2023/04/24 06:59:05;;;;;;;5.10;3.22;;;;;;;9.17;92.30;99984.19;5065110;28;20037;-69
2023/04/24 07:01:32;;;;;;;3.17;2.83;;;;;;;9.12;92.32;99991.41;5068307;28;20128;-70
2023/04/24 07:03:59;;;;;;;4.03;2.13;;;;;;;9.09;91.97;99998.56;5068282;28;20735;-70
2023/04/24 07:06:27;;;;;;;2.58;1.60;;;;;;;9.06;91.62;100009.19;5064038;28;20041;-69
2023/04/24 07:08:54;;;;;;;1.42;1.00;;;;;;;8.98;91.61;100015.59;5067864;28;20109;-69
2023/04/24 07:11:21;;;;;;;1.30;1.05;;;;;;;8.92;91.69;100022.84;5086645;28;20042;-69
2023/04/24 07:13:49;;;;;;;1.75;1.17;;;;;;;8.89;92.23;100022.94;5069530;28;20033;-69
2023/04/24 07:16:16;;;;;;;1.63;1.05;;;;;;;8.90;92.89;100038.69;5066815;28;20041;-68
2023/04/24 07:18:43;;;;;;;4.28;1.25;;;;;;;8.91;93.27;100040.38;5063696;28;21153;-69
2023/04/24 07:21:11;;;;;;;1.63;0.95;;;;;;;8.86;94.14;100044.94;5067557;28;20041;-71
2023/04/24 07:23:38;;;;;;;0.82;0.70;;;;;;;8.83;94.22;100052.94;5065925;28;20052;-70
2023/04/24 07:26:05;;;;;;;1.67;1.13;;;;;;;8.76;94.78;100056.69;5065474;28;20037;-71
2023/04/24 07:28:32;;;;;;;1.33;0.70;;;;;;;8.65;95.01;100065.81;5063019;28;20041;-69
2023/04/24 07:31:00;;;;;;;1.38;0.90;;;;;;;8.55;95.54;100069.66;5066382;28;20048;-71
2023/04/24 07:33:27;;;;;;;3.80;0.80;;;;;;;8.46;96.33;100069.94;5049059;28;20049;-70
2023/04/24 07:35:54;;;;;;;2.22;0.90;;;;;;;8.37;96.49;100074.63;5061919;28;20079;-70
2023/04/24 07:38:22;;;;;;;3.58;1.10;;;;;;;8.34;96.69;100076.50;5049506;28;20052;-71
2023/04/24 07:40:49;;;;;;;2.75;1.08;;;;;;;8.30;97.60;100091.47;5064505;28;20528;-70
2023/04/24 07:43:16;;;;;;;1.10;0.95;;;;;;;8.26;98.31;100089.00;5064541;28;20176;-69
2023/04/24 07:45:44;;;;;;;2.45;1.10;;;;;;;8.23;98.47;100092.56;5064573;28;20041;-70
2023/04/24 07:48:13;;;;;;;2.00;1.35;;;;;;;8.23;98.96;100093.47;5067477;28;20037;-71
2023/04/24 07:50:40;;;;;;;3.17;1.33;;;;;;;8.24;99.64;100100.41;5064587;28;20480;-70
2023/04/24 07:53:07;;;;;;;2.20;1.48;;;;;;;8.25;100.00;100103.91;5050418;28;20043;-70
2023/04/24 07:55:35;;;;;;;3.40;1.92;;;;;;;8.28;100.00;100098.56;5068796;28;20049;-71
2023/04/24 07:58:02;;;;;;;3.53;2.92;;;;;;;8.30;100.00;100112.47;5068511;28;20040;-71
2023/04/24 08:00:29;;;;;;;6.22;5.00;;;;;;;8.30;100.00;100119.50;5064799;28;20851;-70
2023/04/24 08:02:56;;;;;;;10.32;6.22;;;;;;;8.26;100.00;100129.25;5067625;28;20112;-70
2023/04/24 08:05:25;;;;;;;9.60;7.47;;;;;;;8.28;99.76;100151.06;5062566;28;20041;-69
2023/04/24 08:07:53;;;;;;;11.43;7.93;;;;;;;8.26;99.41;100138.88;5062401;28;20531;-69
2023/04/24 08:10:22;;;;;;;14.65;9.07;;;;;;;8.21;98.91;100175.78;5054853;28;20072;-68
2023/04/24 08:12:49;;;;;;;13.98;8.70;;;;;;;8.18;99.48;100170.66;5066840;28;20040;-68
2023/04/24 08:15:17;;;;;;;14.73;9.43;;;;;;;8.16;99.11;100199.56;5060954;28;20107;-69
2023/04/24 08:17:44;;;;;;;18.60;9.48;;;;;;;8.12;99.40;100192.72;5059829;28;20771;-69
2023/04/24 08:20:13;;;;;;;13.23;8.95;;;;;;;8.09;99.56;100198.88;5067847;28;20033;-70
2023/04/24 08:22:42;;;;;;;18.15;8.95;;;;;;;8.06;99.23;100217.38;5053165;28;20966;-68
2023/04/24 08:25:10;;;;;;;15.73;8.80;;;;;;;8.02;99.34;100233.28;5046300;28;20041;-68
2023/04/24 08:27:38;;;;;;;17.13;9.85;;;;;;;8.00;99.43;100240.31;5066658;28;20090;-69
2023/04/24 08:30:07;;;;;;;14.18;8.23;;;;;;;8.00;99.43;100238.53;5059609;28;20111;-68
2023/04/24 08:32:34;;;;;;;17.85;9.13;;;;;;;7.99;99.48;100247.31;5061116;28;20033;-69
2023/04/24 08:35:01;;;;;;;14.95;8.65;;;;;;;8.02;99.49;100267.38;5068036;28;20128;-68
2023/04/24 08:37:28;;;;;;;14.55;7.82;;;;;;;7.97;98.97;100278.03;5064032;28;20038;-69
2023/04/24 08:39:55;;;;;;;14.55;8.90;;;;;;;7.86;99.55;100280.94;5048249;28;20120;-69
2023/04/24 08:42:24;;;;;;;12.52;7.90;;;;;;;7.85;100.00;100278.38;5051934;28;20444;-68
2023/04/24 08:44:51;;;;;;;12.88;7.68;;;;;;;7.89;100.00;100280.84;5057465;28;20033;-69
2023/04/24 08:47:20;;;;;;;12.63;8.00;;;;;;;7.95;100.00;100285.06;5050650;28;20041;-70
2023/04/24 08:49:49;;;;;;;15.52;8.25;;;;;;;7.98;100.00;100289.38;5067916;28;20048;-67
2023/04/24 08:52:18;;;;;;;17.63;8.98;;;;;;;8.01;100.00;100298.00;5082228;28;20044;-70
2023/04/24 08:54:46;;;;;;;17.73;9.07;;;;;;;8.03;100.00;100306.72;5066308;28;20125;-67
2023/04/24 08:57:15;;;;;;;21.33;8.90;;;;;;;8.05;100.00;100307.53;5067107;28;20049;-67
2023/04/24 08:59:43;;;;;;;21.77;9.40;;;;;;;8.04;100.00;100313.69;5064300;28;20151;-70
2023/04/24 09:02:12;;;;;;;19.35;8.23;;;;;;;8.06;100.00;100319.75;5068128;28;20052;-68
2023/04/24 09:04:41;;;;;;;22.38;9.20;;;;;;;8.02;100.00;100312.88;5072420;28;20037;-68
2023/04/24 09:07:11;;;;;;;20.05;7.53;;;;;;;8.04;100.00;100320.69;5051899;28;20038;-68
2023/04/24 09:09:41;;;;;;;15.73;6.50;;;;;;;8.03;100.00;100337.38;5059875;28;20045;-68
2023/04/24 09:12:09;;;;;;;15.02;5.38;;;;;;;7.99;100.00;100333.94;5065252;28;20437;-68
2023/04/24 09:14:42;;;;;;;17.42;6.05;;;;;;;8.01;100.00;100350.53;5067137;28;20041;-67
2023/04/24 09:17:09;;;;;;;16.63;6.05;;;;;;;8.07;99.90;100344.25;5065831;28;20088;-70
2023/04/24 09:19:36;;;;;;;15.63;5.90;;;;;;;8.13;99.70;100361.59;5082348;28;20064;-68
2023/04/24 09:22:09;;;;;;;17.98;5.78;;;;;;;8.18;99.54;100373.69;5047893;28;20120;-68
2023/04/24 09:24:36;;;;;;;22.60;5.80;;;;;;;8.22;99.62;100377.97;5051170;28;20740;-68
2023/04/24 09:27:03;;;;;;;14.75;5.47;;;;;;;8.26;98.79;100365.59;5056184;28;20037;-68
2023/04/24 09:29:32;;;;;;;18.08;5.53;;;;;;;8.31;99.11;100371.56;5080539;28;20037;-70
2023/04/24 09:32:21;;;;;;;13.52;4.97;;;;;;;8.35;98.71;100390.72;5061886;28;20670;-68
2023/04/24 09:34:48;;;;;;;14.50;4.75;;;;;;;8.36;97.51;100397.69;5005736;28;20046;-68
2023/04/24 09:37:29;;;;;;;14.75;4.70;;;;;;;8.42;96.77;100391.41;5019649;28;20052;-68
2023/04/24 09:40:23;;;;;;;16.25;4.85;;;;;;;8.60;96.70;100419.81;5005808;28;20034;-67
2023/04/24 09:43:02;;;;;;;15.77;4.65;;;;;;;8.72;96.07;100409.84;5007484;28;20047;-67
2023/04/24 09:45:38;;;;;;;15.30;4.00;;;;;;;8.69;94.65;100409.06;5021534;28;20034;-68
2023/04/24 09:48:09;;;;;;;17.63;4.20;;;;;;;8.62;94.28;100410.13;5007133;28;20058;-67
2023/04/24 09:50:37;;;;;;;11.40;3.50;;;;;;;8.62;94.23;100417.16;5017304;28;20131;-68
2023/04/24 09:53:10;;;;;;;10.48;3.28;;;;;;;8.65;92.92;100423.19;4986051;28;20117;-67
2023/04/24 09:55:46;;;;;;;10.50;2.83;;;;;;;8.76;90.24;100430.75;4987384;28;20053;-68
2023/04/24 09:58:13;;;;;;;11.57;3.17;;;;;;;8.92;90.38;100446.09;5010832;28;20537;-68
2023/04/24 10:00:40;;;;;;;11.30;3.05;;;;;;;9.09;89.13;100449.06;4985645;28;20058;-68
2023/04/24 10:03:08;;;;;;;10.13;2.97;;;;;;;9.37;86.95;100461.34;4998745;28;20499;-68
2023/04/24 10:05:37;;;;;;;10.70;2.75;;;;;;;9.58;84.81;100453.69;5004133;28;20197;-69
2023/04/24 10:08:07;;;;;;;12.35;2.85;;;;;;;9.70;82.93;100471.72;5007318;28;20133;-69
2023/04/24 10:10:40;;;;;;;12.38;3.22;;;;;;;9.75;82.46;100442.59;5002607;28;20046;-69
2023/04/24 10:13:10;;;;;;;12.35;2.55;;;;;;;9.87;82.08;100444.00;5016902;28;20041;-69
2023/04/24 10:15:38;;;;;;;12.60;2.80;;;;;;;9.95;80.38;100455.13;4988993;28;20113;-69
2023/04/24 10:18:06;;;;;;;12.45;2.53;;;;;;;10.03;80.32;100447.81;5007600;28;20061;-69
2023/04/24 10:20:37;;;;;;;5.60;1.80;;;;;;;10.12;78.00;100480.00;4995578;28;20065;-69
2023/04/24 10:23:04;;;;;;;6.60;1.70;;;;;;;10.23;77.10;100467.34;5002504;28;20070;-69
2023/04/24 10:25:34;;;;;;;10.90;2.80;;;;;;;10.36;77.80;100471.25;5004975;28;20144;-69
2023/04/24 10:28:03;;;;;;;8.02;2.00;;;;;;;10.43;77.24;100471.06;5000827;28;20121;-69
2023/04/24 10:30:35;;;;;;;7.40;2.10;;;;;;;10.40;75.83;100472.88;5004672;28;20093;-69
2023/04/24 10:33:08;;;;;;;8.38;1.92;;;;;;;10.38;75.69;100465.97;5004936;28;20034;-69
2023/04/24 10:35:44;;;;;;;7.95;2.10;;;;;;;10.26;76.50;100480.41;5004158;28;20064;-69
2023/04/24 10:38:13;;;;;;;7.20;2.50;;;;;;;10.14;76.12;100483.47;4987514;28;20523;-69
2023/04/24 10:40:43;;;;;;;7.47;2.20;;;;;;;10.00;76.51;100490.03;5001220;28;20708;-69
2023/04/24 10:43:11;;;;;;;8.98;1.88;;;;;;;9.88;76.18;100496.59;5000572;28;20073;-69
2023/04/24 10:45:39;;;;;;;5.45;1.75;;;;;;;9.82;75.21;100493.28;4993042;28;20046;-70
2023/04/24 10:48:13;;;;;;;7.47;2.47;;;;;;;9.83;76.89;100503.75;4999058;28;20057;-70
2023/04/24 10:50:52;;;;;;;8.05;2.22;;;;;;;9.94;78.08;100492.88;5005690;28;20039;-70
2023/04/24 10:53:26;;;;;;;7.72;2.20;;;;;;;10.14;75.96;100507.16;5003052;28;20085;-70
2023/04/24 10:56:06;;;;;;;10.18;1.70;;;;;;;10.26;74.49;100493.56;5005447;28;20051;-70
2023/04/24 10:58:49;;;;;;;6.90;1.88;;;;;;;10.26;74.40;100506.75;5001243;28;20038;-70
2023/04/24 11:01:32;;;;;;;9.93;2.55;;;;;;;10.19;74.64;100519.25;5003777;28;20073;-70
2023/04/24 11:04:02;;;;;;;6.57;1.88;;;;;;;10.07;73.87;100531.06;5001479;28;20333;-69
2023/04/24 11:06:37;;;;;;;5.75;1.92;;;;;;;10.00;74.14;100521.66;4993856;28;20054;-68
2023/04/24 11:09:08;;;;;;;3.80;1.50;;;;;;;10.04;73.18;100522.41;4996506;28;20042;-69
2023/04/24 11:11:39;;;;;;;4.18;1.33;;;;;;;10.05;73.81;100545.19;5004090;28;20043;-69
2023/04/24 11:14:08;;;;;;;4.80;1.00;;;;;;;10.03;72.54;100534.72;5000207;28;20042;-69
2023/04/24 11:16:41;;;;;;;3.88;0.90;;;;;;;10.01;72.76;100546.22;4998350;28;20039;-68
2023/04/24 11:19:14;;;;;;;5.63;1.38;;;;;;;10.14;73.30;100536.97;5005233;28;20046;-69
2023/04/24 11:21:53;;;;;;;3.80;1.17;;;;;;;10.39;73.21;100542.31;5005655;28;20053;-69
2023/04/24 11:24:37;;;;;;;7.93;1.30;;;;;;;10.74;72.18;100549.91;5003691;28;20245;-68
2023/04/24 11:27:16;;;;;;;4.13;1.17;;;;;;;11.13;72.88;100546.75;4987373;28;20077;-68
2023/04/24 11:29:48;;;;;;;6.43;1.23;;;;;;;11.44;72.87;100547.34;4989750;28;20050;-69
2023/04/24 11:32:27;;;;;;;3.65;1.00;;;;;;;11.57;70.39;100539.81;5007871;28;20625;-69
2023/04/24 11:35:03;;;;;;;4.18;1.00;;;;;;;11.56;68.46;100553.94;5004817;28;20040;-69
2023/04/24 11:37:39;;;;;;;3.63;1.15;;;;;;;11.53;68.02;100562.84;5008171;28;20047;-69
2023/04/24 11:40:09;;;;;;;3.70;1.40;;;;;;;11.50;71.71;100555.91;5001219;28;20047;-69